This is the latest recevied weather packets stored in our database for station/object DM3FAM-10. If no packets are shown the sender has not sent any weather packets the latest 10 day(s).
| Time | Temp. | Humidity | Pressure | Rain* | Wind** | Luminosity | Snow |
|---|---|---|---|---|---|---|---|
| 1777533991 | 12.22° C | 34% | 973.1 hPa | - | - | - | - |
| 1777533091 | 11.67° C | 36% | 973.2 hPa | - | - | - | - |
| 1777532191 | 11.11° C | 36% | 973.2 hPa | - | - | - | - |
| 1777531291 | 8.89° C | 52% | 973.2 hPa | - | - | - | - |
| 1777530391 | 7.78° C | 60% | 973.1 hPa | - | - | - | - |
| 1777529491 | 6.11° C | 73% | 973.2 hPa | - | - | - | - |
| 1777528591 | 5° C | 75% | 973 hPa | - | - | - | - |
| 1777527691 | 5° C | 72% | 972.9 hPa | - | - | - | - |
| 1777526791 | 5° C | 71% | 972.9 hPa | - | - | - | - |
| 1777525891 | 5.56° C | 64% | 972.8 hPa | - | - | - | - |
| 1777524991 | 5° C | 68% | 972.7 hPa | - | - | - | - |
| 1777524091 | 4.44° C | 72% | 972.7 hPa | - | - | - | - |
| 1777523191 | 4.44° C | 74% | 972.9 hPa | - | - | - | - |
| 1777522291 | 3.89° C | 72% | 972.7 hPa | - | - | - | - |
| 1777521391 | 4.44° C | 69% | 972.6 hPa | - | - | - | - |
| 1777517790 | 5.56° C | 61% | 972.6 hPa | - | - | - | - |
| 1777516890 | 6.67° C | 56% | 972.6 hPa | - | - | - | - |
| 1777515990 | 5° C | 68% | 972.7 hPa | - | - | - | - |
| 1777515090 | 6.11° C | 60% | 972.6 hPa | - | - | - | - |
| 1777514190 | 5.56° C | 65% | 972.5 hPa | - | - | - | - |
| 1777513290 | 7.22° C | 52% | 972.5 hPa | - | - | - | - |
| 1777512390 | 7.22° C | 51% | 972.3 hPa | - | - | - | - |
| 1777511490 | 6.11° C | 62% | 972.2 hPa | - | - | - | - |
| 1777510590 | 7.78° C | 51% | 972.2 hPa | - | - | - | - |
| 1777509690 | 7.78° C | 51% | 972 hPa | - | - | - | - |
* Rain since midnight (hover to see other rain measurements)
** Current wind speed in m/s (hover to see current wind gust speed)